sensor_id;sensor_type;location;lat;lon;timestamp;temperature;humidity
68977;SHT31;56029;52.568;13.588;2023-04-03T00:01:01;-0.29;90.04
68977;SHT31;56029;52.568;13.588;2023-04-03T00:03:27;-0.28;89.91
68977;SHT31;56029;52.568;13.588;2023-04-03T00:05:52;-0.22;89.70
68977;SHT31;56029;52.568;13.588;2023-04-03T00:08:19;-0.21;89.48
68977;SHT31;56029;52.568;13.588;2023-04-03T00:10:45;-0.22;89.46
68977;SHT31;56029;52.568;13.588;2023-04-03T00:13:10;-0.25;89.62
68977;SHT31;56029;52.568;13.588;2023-04-03T00:15:37;-0.28;89.64
68977;SHT31;56029;52.568;13.588;2023-04-03T00:18:02;-0.21;89.38
68977;SHT31;56029;52.568;13.588;2023-04-03T00:20:28;-0.25;89.29
68977;SHT31;56029;52.568;13.588;2023-04-03T00:22:54;-0.28;89.48
68977;SHT31;56029;52.568;13.588;2023-04-03T00:25:20;-0.21;88.94
68977;SHT31;56029;52.568;13.588;2023-04-03T00:27:45;-0.19;88.78
68977;SHT31;56029;52.568;13.588;2023-04-03T00:30:14;-0.25;89.02
68977;SHT31;56029;52.568;13.588;2023-04-03T00:32:41;-0.28;89.14
68977;SHT31;56029;52.568;13.588;2023-04-03T00:35:06;-0.35;89.62
68977;SHT31;56029;52.568;13.588;2023-04-03T00:37:33;-0.36;89.62
68977;SHT31;56029;52.568;13.588;2023-04-03T00:39:58;-0.37;89.86
68977;SHT31;56029;52.568;13.588;2023-04-03T00:42:24;-0.40;89.69
68977;SHT31;56029;52.568;13.588;2023-04-03T00:47:18;-0.52;89.94
68977;SHT31;56029;52.568;13.588;2023-04-03T00:49:44;-0.52;90.11
68977;SHT31;56029;52.568;13.588;2023-04-03T00:52:16;-0.64;90.28
68977;SHT31;56029;52.568;13.588;2023-04-03T00:54:43;-0.63;90.41
68977;SHT31;56029;52.568;13.588;2023-04-03T00:57:11;-0.73;90.63
68977;SHT31;56029;52.568;13.588;2023-04-03T00:59:40;-0.80;90.95
68977;SHT31;56029;52.568;13.588;2023-04-03T01:02:07;-0.84;90.97
68977;SHT31;56029;52.568;13.588;2023-04-03T01:04:41;-0.83;91.08
68977;SHT31;56029;52.568;13.588;2023-04-03T01:07:30;-0.87;91.20
68977;SHT31;56029;52.568;13.588;2023-04-03T01:10:00;-0.93;91.41
68977;SHT31;56029;52.568;13.588;2023-04-03T01:12:30;-0.91;91.31
68977;SHT31;56029;52.568;13.588;2023-04-03T01:14:58;-0.97;91.63
68977;SHT31;56029;52.568;13.588;2023-04-03T01:17:42;-1.01;91.61
68977;SHT31;56029;52.568;13.588;2023-04-03T01:20:31;-1.03;91.70
68977;SHT31;56029;52.568;13.588;2023-04-03T01:25:47;-1.11;91.92
68977;SHT31;56029;52.568;13.588;2023-04-03T01:28:22;-1.14;92.24
68977;SHT31;56029;52.568;13.588;2023-04-03T01:31:00;-1.16;92.13
68977;SHT31;56029;52.568;13.588;2023-04-03T01:33:28;-1.24;92.33
68977;SHT31;56029;52.568;13.588;2023-04-03T01:35:54;-1.27;92.57
68977;SHT31;56029;52.568;13.588;2023-04-03T01:38:20;-1.28;92.72
68977;SHT31;56029;52.568;13.588;2023-04-03T01:40:45;-1.31;92.72
68977;SHT31;56029;52.568;13.588;2023-04-03T01:43:11;-1.30;92.79
68977;SHT31;56029;52.568;13.588;2023-04-03T01:45:36;-1.34;92.86
68977;SHT31;56029;52.568;13.588;2023-04-03T01:48:02;-1.34;92.91
68977;SHT31;56029;52.568;13.588;2023-04-03T01:50:28;-1.38;92.85
68977;SHT31;56029;52.568;13.588;2023-04-03T01:52:54;-1.39;92.88
68977;SHT31;56029;52.568;13.588;2023-04-03T01:55:19;-1.41;93.03
68977;SHT31;56029;52.568;13.588;2023-04-03T01:57:45;-1.46;93.21
68977;SHT31;56029;52.568;13.588;2023-04-03T02:00:11;-1.46;93.26
68977;SHT31;56029;52.568;13.588;2023-04-03T02:02:37;-1.42;93.27
68977;SHT31;56029;52.568;13.588;2023-04-03T02:05:03;-1.43;93.19
68977;SHT31;56029;52.568;13.588;2023-04-03T02:07:28;-1.45;93.11
68977;SHT31;56029;52.568;13.588;2023-04-03T02:09:54;-1.43;93.20
68977;SHT31;56029;52.568;13.588;2023-04-03T02:12:19;-1.43;93.26
68977;SHT31;56029;52.568;13.588;2023-04-03T02:14:45;-1.39;93.27
68977;SHT31;56029;52.568;13.588;2023-04-03T02:17:10;-1.36;93.00
68977;SHT31;56029;52.568;13.588;2023-04-03T02:19:36;-1.38;93.12
68977;SHT31;56029;52.568;13.588;2023-04-03T02:22:03;-1.38;93.01
68977;SHT31;56029;52.568;13.588;2023-04-03T02:24:28;-1.43;93.18
68977;SHT31;56029;52.568;13.588;2023-04-03T02:26:54;-1.43;93.01
68977;SHT31;56029;52.568;13.588;2023-04-03T02:29:19;-1.51;93.11
68977;SHT31;56029;52.568;13.588;2023-04-03T02:31:45;-1.51;93.06
68977;SHT31;56029;52.568;13.588;2023-04-03T02:34:11;-1.55;93.31
68977;SHT31;56029;52.568;13.588;2023-04-03T02:36:36;-1.52;93.20
68977;SHT31;56029;52.568;13.588;2023-04-03T02:39:03;-1.52;93.48
68977;SHT31;56029;52.568;13.588;2023-04-03T02:41:29;-1.59;93.64
68977;SHT31;56029;52.568;13.588;2023-04-03T02:44:04;-1.58;94.00
68977;SHT31;56029;52.568;13.588;2023-04-03T02:46:30;-1.51;93.76
68977;SHT31;56029;52.568;13.588;2023-04-03T02:48:56;-1.58;94.06
68977;SHT31;56029;52.568;13.588;2023-04-03T02:51:21;-1.49;93.64
68977;SHT31;56029;52.568;13.588;2023-04-03T02:53:48;-1.48;93.65
68977;SHT31;56029;52.568;13.588;2023-04-03T02:56:14;-1.48;93.52
68977;SHT31;56029;52.568;13.588;2023-04-03T02:58:39;-1.49;93.55
68977;SHT31;56029;52.568;13.588;2023-04-03T03:01:06;-1.49;93.64
68977;SHT31;56029;52.568;13.588;2023-04-03T03:03:31;-1.53;93.76
68977;SHT31;56029;52.568;13.588;2023-04-03T03:06:02;-1.58;93.85
68977;SHT31;56029;52.568;13.588;2023-04-03T03:08:27;-1.60;94.11
68977;SHT31;56029;52.568;13.588;2023-04-03T03:10:53;-1.63;94.27
68977;SHT31;56029;52.568;13.588;2023-04-03T03:13:18;-1.66;94.47
68977;SHT31;56029;52.568;13.588;2023-04-03T03:15:44;-1.67;94.42
68977;SHT31;56029;52.568;13.588;2023-04-03T03:18:10;-1.73;94.46
68977;SHT31;56029;52.568;13.588;2023-04-03T03:20:35;-1.80;94.64
68977;SHT31;56029;52.568;13.588;2023-04-03T03:23:01;-1.84;94.65
68977;SHT31;56029;52.568;13.588;2023-04-03T03:25:26;-1.91;94.78
68977;SHT31;56029;52.568;13.588;2023-04-03T03:27:52;-1.97;94.99
68977;SHT31;56029;52.568;13.588;2023-04-03T03:30:18;-2.00;95.14
68977;SHT31;56029;52.568;13.588;2023-04-03T03:32:43;-2.04;95.47
68977;SHT31;56029;52.568;13.588;2023-04-03T03:35:09;-2.08;95.58
68977;SHT31;56029;52.568;13.588;2023-04-03T03:37:34;-2.08;95.56
68977;SHT31;56029;52.568;13.588;2023-04-03T03:40:00;-2.12;95.75
68977;SHT31;56029;52.568;13.588;2023-04-03T03:42:26;-2.15;95.88
68977;SHT31;56029;52.568;13.588;2023-04-03T03:44:51;-2.20;96.08
68977;SHT31;56029;52.568;13.588;2023-04-03T03:47:17;-2.17;96.08
68977;SHT31;56029;52.568;13.588;2023-04-03T03:49:43;-2.21;96.08
68977;SHT31;56029;52.568;13.588;2023-04-03T03:52:08;-2.22;96.19
68977;SHT31;56029;52.568;13.588;2023-04-03T03:54:36;-2.28;96.13
68977;SHT31;56029;52.568;13.588;2023-04-03T03:57:02;-2.32;96.31
68977;SHT31;56029;52.568;13.588;2023-04-03T03:59:28;-2.37;96.62
68977;SHT31;56029;52.568;13.588;2023-04-03T04:01:54;-2.38;97.04
68977;SHT31;56029;52.568;13.588;2023-04-03T04:04:20;-2.42;97.00
68977;SHT31;56029;52.568;13.588;2023-04-03T04:06:45;-2.44;97.27
68977;SHT31;56029;52.568;13.588;2023-04-03T04:09:11;-2.45;97.46
68977;SHT31;56029;52.568;13.588;2023-04-03T04:11:37;-2.46;97.51
68977;SHT31;56029;52.568;13.588;2023-04-03T04:14:06;-2.46;97.51
68977;SHT31;56029;52.568;13.588;2023-04-03T04:16:31;-2.42;97.37
68977;SHT31;56029;52.568;13.588;2023-04-03T04:18:57;-2.39;97.00
68977;SHT31;56029;52.568;13.588;2023-04-03T04:21:22;-2.42;96.72
68977;SHT31;56029;52.568;13.588;2023-04-03T04:23:48;-2.39;96.61
68977;SHT31;56029;52.568;13.588;2023-04-03T04:26:13;-2.37;96.54
68977;SHT31;56029;52.568;13.588;2023-04-03T04:28:39;-2.32;96.67
68977;SHT31;56029;52.568;13.588;2023-04-03T04:31:05;-2.32;96.63
68977;SHT31;56029;52.568;13.588;2023-04-03T04:33:30;-2.27;96.58
68977;SHT31;56029;52.568;13.588;2023-04-03T04:35:56;-2.28;96.60
68977;SHT31;56029;52.568;13.588;2023-04-03T04:38:21;-2.25;96.42
68977;SHT31;56029;52.568;13.588;2023-04-03T04:40:48;-2.18;96.44
68977;SHT31;56029;52.568;13.588;2023-04-03T04:43:14;-2.18;96.43
68977;SHT31;56029;52.568;13.588;2023-04-03T04:45:41;-2.05;96.39
68977;SHT31;56029;52.568;13.588;2023-04-03T04:48:07;-2.04;96.09
68977;SHT31;56029;52.568;13.588;2023-04-03T04:50:32;-1.97;96.30
68977;SHT31;56029;52.568;13.588;2023-04-03T04:52:58;-2.01;95.99
68977;SHT31;56029;52.568;13.588;2023-04-03T04:55:23;-2.01;96.21
68977;SHT31;56029;52.568;13.588;2023-04-03T04:57:49;-2.00;96.03
68977;SHT31;56029;52.568;13.588;2023-04-03T05:00:15;-1.95;96.07
68977;SHT31;56029;52.568;13.588;2023-04-03T05:02:41;-1.89;96.28
68977;SHT31;56029;52.568;13.588;2023-04-03T05:05:07;-1.89;95.86
68977;SHT31;56029;52.568;13.588;2023-04-03T05:07:33;-1.89;96.11
68977;SHT31;56029;52.568;13.588;2023-04-03T05:09:58;-1.80;96.14
68977;SHT31;56029;52.568;13.588;2023-04-03T05:12:24;-1.80;96.02
68977;SHT31;56029;52.568;13.588;2023-04-03T05:14:49;-1.74;95.80
68977;SHT31;56029;52.568;13.588;2023-04-03T05:17:15;-1.70;95.60
68977;SHT31;56029;52.568;13.588;2023-04-03T05:19:41;-1.64;95.60
68977;SHT31;56029;52.568;13.588;2023-04-03T05:22:06;-1.60;95.43
68977;SHT31;56029;52.568;13.588;2023-04-03T05:24:32;-1.58;95.26
68977;SHT31;56029;52.568;13.588;2023-04-03T05:26:58;-1.51;95.17
68977;SHT31;56029;52.568;13.588;2023-04-03T05:29:24;-1.45;94.82
68977;SHT31;56029;52.568;13.588;2023-04-03T05:31:50;-1.38;94.73
68977;SHT31;56029;52.568;13.588;2023-04-03T05:34:15;-1.31;94.64
68977;SHT31;56029;52.568;13.588;2023-04-03T05:36:41;-1.18;94.16
68977;SHT31;56029;52.568;13.588;2023-04-03T05:39:08;-1.11;93.58
68977;SHT31;56029;52.568;13.588;2023-04-03T05:41:34;-0.98;93.34
68977;SHT31;56029;52.568;13.588;2023-04-03T05:43:59;-0.95;93.56
68977;SHT31;56029;52.568;13.588;2023-04-03T05:46:25;-0.87;93.49
68977;SHT31;56029;52.568;13.588;2023-04-03T05:48:51;-0.76;93.20
68977;SHT31;56029;52.568;13.588;2023-04-03T05:51:22;-0.69;92.66
68977;SHT31;56029;52.568;13.588;2023-04-03T05:53:52;-0.54;92.51
68977;SHT31;56029;52.568;13.588;2023-04-03T05:56:20;-0.46;92.01
68977;SHT31;56029;52.568;13.588;2023-04-03T05:58:45;-0.45;92.16
68977;SHT31;56029;52.568;13.588;2023-04-03T06:01:11;-0.35;91.96
68977;SHT31;56029;52.568;13.588;2023-04-03T06:03:37;-0.32;91.22
68977;SHT31;56029;52.568;13.588;2023-04-03T06:06:04;-0.23;91.32
68977;SHT31;56029;52.568;13.588;2023-04-03T06:08:30;-0.06;90.10
68977;SHT31;56029;52.568;13.588;2023-04-03T06:10:56;0.02;89.64
68977;SHT31;56029;52.568;13.588;2023-04-03T06:13:22;0.06;89.47
68977;SHT31;56029;52.568;13.588;2023-04-03T06:15:47;0.16;89.06
68977;SHT31;56029;52.568;13.588;2023-04-03T06:18:13;0.19;89.26
68977;SHT31;56029;52.568;13.588;2023-04-03T06:20:39;0.25;89.36
68977;SHT31;56029;52.568;13.588;2023-04-03T06:23:05;0.43;88.03
68977;SHT31;56029;52.568;13.588;2023-04-03T06:25:31;0.56;85.25
68977;SHT31;56029;52.568;13.588;2023-04-03T06:27:57;0.63;85.78
68977;SHT31;56029;52.568;13.588;2023-04-03T06:30:22;0.73;85.05
68977;SHT31;56029;52.568;13.588;2023-04-03T06:32:48;0.78;84.65
68977;SHT31;56029;52.568;13.588;2023-04-03T06:35:14;0.87;84.60
68977;SHT31;56029;52.568;13.588;2023-04-03T06:37:39;0.92;84.99
68977;SHT31;56029;52.568;13.588;2023-04-03T06:40:05;0.99;84.44
68977;SHT31;56029;52.568;13.588;2023-04-03T06:42:31;1.04;84.89
68977;SHT31;56029;52.568;13.588;2023-04-03T06:44:57;1.11;84.68
68977;SHT31;56029;52.568;13.588;2023-04-03T06:47:23;1.16;84.23
68977;SHT31;56029;52.568;13.588;2023-04-03T06:49:48;1.22;83.97
68977;SHT31;56029;52.568;13.588;2023-04-03T06:52:14;1.31;82.08
68977;SHT31;56029;52.568;13.588;2023-04-03T06:54:40;1.31;80.15
68977;SHT31;56029;52.568;13.588;2023-04-03T06:57:06;1.40;80.55
68977;SHT31;56029;52.568;13.588;2023-04-03T06:59:34;1.44;80.57
68977;SHT31;56029;52.568;13.588;2023-04-03T07:02:00;1.47;80.66
68977;SHT31;56029;52.568;13.588;2023-04-03T07:04:26;1.57;80.35
68977;SHT31;56029;52.568;13.588;2023-04-03T07:06:51;1.60;80.46
68977;SHT31;56029;52.568;13.588;2023-04-03T07:09:18;1.67;79.05
68977;SHT31;56029;52.568;13.588;2023-04-03T07:11:44;1.84;78.63
68977;SHT31;56029;52.568;13.588;2023-04-03T07:14:10;1.97;78.38
68977;SHT31;56029;52.568;13.588;2023-04-03T07:16:35;1.98;78.42
68977;SHT31;56029;52.568;13.588;2023-04-03T07:19:02;1.95;77.73
68977;SHT31;56029;52.568;13.588;2023-04-03T07:21:28;2.01;78.13
68977;SHT31;56029;52.568;13.588;2023-04-03T07:23:54;2.07;77.11
68977;SHT31;56029;52.568;13.588;2023-04-03T07:26:20;2.01;76.58
68977;SHT31;56029;52.568;13.588;2023-04-03T07:28:48;2.02;75.69
68977;SHT31;56029;52.568;13.588;2023-04-03T07:31:14;2.02;75.37
68977;SHT31;56029;52.568;13.588;2023-04-03T07:33:40;2.04;76.10
68977;SHT31;56029;52.568;13.588;2023-04-03T07:36:06;2.12;76.71
68977;SHT31;56029;52.568;13.588;2023-04-03T07:38:33;2.22;76.26
68977;SHT31;56029;52.568;13.588;2023-04-03T07:40:59;2.33;75.93
68977;SHT31;56029;52.568;13.588;2023-04-03T07:43:25;2.49;74.86
68977;SHT31;56029;52.568;13.588;2023-04-03T07:45:51;2.48;72.96
68977;SHT31;56029;52.568;13.588;2023-04-03T07:48:19;2.43;71.26
68977;SHT31;56029;52.568;13.588;2023-04-03T07:50:44;2.35;70.94
68977;SHT31;56029;52.568;13.588;2023-04-03T07:53:10;2.54;71.49
68977;SHT31;56029;52.568;13.588;2023-04-03T07:55:36;2.76;70.85
68977;SHT31;56029;52.568;13.588;2023-04-03T07:58:16;2.80;70.77
68977;SHT31;56029;52.568;13.588;2023-04-03T08:00:42;2.63;71.37
68977;SHT31;56029;52.568;13.588;2023-04-03T08:03:12;2.62;71.62
68977;SHT31;56029;52.568;13.588;2023-04-03T08:05:40;2.91;72.14
68977;SHT31;56029;52.568;13.588;2023-04-03T08:08:07;3.27;72.26
68977;SHT31;56029;52.568;13.588;2023-04-03T08:10:33;3.34;71.56
68977;SHT31;56029;52.568;13.588;2023-04-03T08:13:00;3.27;69.54
68977;SHT31;56029;52.568;13.588;2023-04-03T08:15:25;3.18;70.17
68977;SHT31;56029;52.568;13.588;2023-04-03T08:17:52;3.01;68.83
68977;SHT31;56029;52.568;13.588;2023-04-03T08:20:18;3.05;67.76
68977;SHT31;56029;52.568;13.588;2023-04-03T08:22:44;3.52;68.88
68977;SHT31;56029;52.568;13.588;2023-04-03T08:25:09;3.73;67.95
68977;SHT31;56029;52.568;13.588;2023-04-03T08:27:35;3.43;65.33
68977;SHT31;56029;52.568;13.588;2023-04-03T08:30:02;3.51;67.83
68977;SHT31;56029;52.568;13.588;2023-04-03T08:32:28;3.12;65.24
68977;SHT31;56029;52.568;13.588;2023-04-03T08:34:54;3.55;66.75
68977;SHT31;56029;52.568;13.588;2023-04-03T08:37:20;3.58;66.17
68977;SHT31;56029;52.568;13.588;2023-04-03T08:39:45;3.21;66.64
68977;SHT31;56029;52.568;13.588;2023-04-03T08:45:12;3.42;66.54
68977;SHT31;56029;52.568;13.588;2023-04-03T08:48:26;3.60;66.70
68977;SHT31;56029;52.568;13.588;2023-04-03T08:50:53;3.70;65.91
68977;SHT31;56029;52.568;13.588;2023-04-03T08:53:23;3.42;64.21
68977;SHT31;56029;52.568;13.588;2023-04-03T08:55:51;3.34;65.76
68977;SHT31;56029;52.568;13.588;2023-04-03T08:58:22;3.38;64.90
68977;SHT31;56029;52.568;13.588;2023-04-03T09:01:02;3.65;64.36
68977;SHT31;56029;52.568;13.588;2023-04-03T09:03:34;3.63;62.67
68977;SHT31;56029;52.568;13.588;2023-04-03T09:06:11;3.46;62.72
68977;SHT31;56029;52.568;13.588;2023-04-03T09:08:53;3.52;62.23
68977;SHT31;56029;52.568;13.588;2023-04-03T09:11:36;3.69;63.66
68977;SHT31;56029;52.568;13.588;2023-04-03T09:14:23;3.69;63.57
68977;SHT31;56029;52.568;13.588;2023-04-03T09:16:56;3.78;63.27
68977;SHT31;56029;52.568;13.588;2023-04-03T09:24:44;3.73;62.61
68977;SHT31;56029;52.568;13.588;2023-04-03T09:27:11;4.04;64.48
68977;SHT31;56029;52.568;13.588;2023-04-03T09:29:42;3.85;63.19
68977;SHT31;56029;52.568;13.588;2023-04-03T09:34:53;4.07;62.53
68977;SHT31;56029;52.568;13.588;2023-04-03T09:37:42;4.06;62.37
68977;SHT31;56029;52.568;13.588;2023-04-03T09:42:57;3.80;64.12
68977;SHT31;56029;52.568;13.588;2023-04-03T09:45:29;3.91;64.53
68977;SHT31;56029;52.568;13.588;2023-04-03T09:55:59;4.45;64.49
68977;SHT31;56029;52.568;13.588;2023-04-03T09:58:33;4.17;63.62
68977;SHT31;56029;52.568;13.588;2023-04-03T10:01:02;4.13;63.12
68977;SHT31;56029;52.568;13.588;2023-04-03T10:03:31;3.99;63.99
68977;SHT31;56029;52.568;13.588;2023-04-03T10:05:58;4.04;64.12
68977;SHT31;56029;52.568;13.588;2023-04-03T10:08:27;3.94;64.06
68977;SHT31;56029;52.568;13.588;2023-04-03T10:11:14;4.07;64.29
68977;SHT31;56029;52.568;13.588;2023-04-03T10:13:57;4.31;63.62
68977;SHT31;56029;52.568;13.588;2023-04-03T10:16:48;4.49;63.05
68977;SHT31;56029;52.568;13.588;2023-04-03T10:19:39;4.40;63.97
68977;SHT31;56029;52.568;13.588;2023-04-03T10:22:17;4.20;61.89
68977;SHT31;56029;52.568;13.588;2023-04-03T10:25:18;4.07;64.31
68977;SHT31;56029;52.568;13.588;2023-04-03T10:33:32;4.37;63.43
68977;SHT31;56029;52.568;13.588;2023-04-03T10:41:59;4.69;61.91
68977;SHT31;56029;52.568;13.588;2023-04-03T10:47:38;4.57;62.27
68977;SHT31;56029;52.568;13.588;2023-04-03T10:50:24;4.47;64.13
68977;SHT31;56029;52.568;13.588;2023-04-03T10:56:01;4.18;63.97
68977;SHT31;56029;52.568;13.588;2023-04-03T10:58:32;4.17;64.33
68977;SHT31;56029;52.568;13.588;2023-04-03T11:01:05;4.38;65.21
68977;SHT31;56029;52.568;13.588;2023-04-03T11:03:44;4.33;65.37
68977;SHT31;56029;52.568;13.588;2023-04-03T11:06:14;4.38;64.55
68977;SHT31;56029;52.568;13.588;2023-04-03T11:08:50;4.48;65.46
68977;SHT31;56029;52.568;13.588;2023-04-03T11:11:31;4.47;65.17
68977;SHT31;56029;52.568;13.588;2023-04-03T11:14:21;4.34;65.20
68977;SHT31;56029;52.568;13.588;2023-04-03T11:16:53;4.49;66.46
68977;SHT31;56029;52.568;13.588;2023-04-03T11:19:34;4.49;66.95
68977;SHT31;56029;52.568;13.588;2023-04-03T11:25:14;4.40;66.52
68977;SHT31;56029;52.568;13.588;2023-04-03T11:27:49;4.59;66.92
68977;SHT31;56029;52.568;13.588;2023-04-03T11:30:33;4.75;65.88
68977;SHT31;56029;52.568;13.588;2023-04-03T11:33:19;4.72;66.20
68977;SHT31;56029;52.568;13.588;2023-04-03T11:35:49;4.62;65.29
68977;SHT31;56029;52.568;13.588;2023-04-03T11:38:22;4.61;65.36
68977;SHT31;56029;52.568;13.588;2023-04-03T11:40:49;4.73;65.73
68977;SHT31;56029;52.568;13.588;2023-04-03T11:43:29;4.95;66.70
68977;SHT31;56029;52.568;13.588;2023-04-03T11:46:00;5.07;64.92
68977;SHT31;56029;52.568;13.588;2023-04-03T11:53:42;4.80;64.83
68977;SHT31;56029;52.568;13.588;2023-04-03T11:59:22;4.87;61.94
68977;SHT31;56029;52.568;13.588;2023-04-03T12:01:54;4.97;61.01
68977;SHT31;56029;52.568;13.588;2023-04-03T12:04:23;5.20;62.66
68977;SHT31;56029;52.568;13.588;2023-04-03T12:07:34;5.26;62.43
68977;SHT31;56029;52.568;13.588;2023-04-03T12:12:24;5.33;61.48
68977;SHT31;56029;52.568;13.588;2023-04-03T12:14:51;5.62;62.46
68977;SHT31;56029;52.568;13.588;2023-04-03T12:17:23;5.79;60.26
68977;SHT31;56029;52.568;13.588;2023-04-03T12:19:50;5.52;60.58
68977;SHT31;56029;52.568;13.588;2023-04-03T12:22:17;5.27;62.38
68977;SHT31;56029;52.568;13.588;2023-04-03T12:24:49;4.97;61.31
68977;SHT31;56029;52.568;13.588;2023-04-03T12:30:12;4.71;60.71
68977;SHT31;56029;52.568;13.588;2023-04-03T12:35:31;5.06;64.22
68977;SHT31;56029;52.568;13.588;2023-04-03T12:38:25;4.97;62.36
68977;SHT31;56029;52.568;13.588;2023-04-03T12:44:12;5.41;62.03
68977;SHT31;56029;52.568;13.588;2023-04-03T12:46:46;5.17;62.19
68977;SHT31;56029;52.568;13.588;2023-04-03T12:49:35;5.10;63.05
68977;SHT31;56029;52.568;13.588;2023-04-03T12:52:17;5.12;63.68
68977;SHT31;56029;52.568;13.588;2023-04-03T12:54:45;4.92;63.22
68977;SHT31;56029;52.568;13.588;2023-04-03T12:59:40;5.00;62.45
68977;SHT31;56029;52.568;13.588;2023-04-03T13:02:20;4.97;62.84
68977;SHT31;56029;52.568;13.588;2023-04-03T13:04:46;5.09;62.75
68977;SHT31;56029;52.568;13.588;2023-04-03T13:07:23;5.03;63.10
68977;SHT31;56029;52.568;13.588;2023-04-03T13:09:59;4.99;62.85
68977;SHT31;56029;52.568;13.588;2023-04-03T13:12:25;4.73;64.40
68977;SHT31;56029;52.568;13.588;2023-04-03T13:14:56;4.62;64.31
68977;SHT31;56029;52.568;13.588;2023-04-03T13:17:24;4.58;64.52
68977;SHT31;56029;52.568;13.588;2023-04-03T13:19:50;4.55;64.79
68977;SHT31;56029;52.568;13.588;2023-04-03T13:22:21;4.57;65.50
68977;SHT31;56029;52.568;13.588;2023-04-03T13:24:50;4.54;66.28
68977;SHT31;56029;52.568;13.588;2023-04-03T13:27:16;4.62;65.97
68977;SHT31;56029;52.568;13.588;2023-04-03T13:29:42;4.76;66.11
68977;SHT31;56029;52.568;13.588;2023-04-03T13:32:19;4.71;65.49
68977;SHT31;56029;52.568;13.588;2023-04-03T13:34:45;4.75;65.73
68977;SHT31;56029;52.568;13.588;2023-04-03T13:37:29;4.89;66.35
68977;SHT31;56029;52.568;13.588;2023-04-03T13:39:59;4.76;64.94
68977;SHT31;56029;52.568;13.588;2023-04-03T13:42:29;4.93;65.89
68977;SHT31;56029;52.568;13.588;2023-04-03T13:45:17;5.06;67.40
68977;SHT31;56029;52.568;13.588;2023-04-03T13:47:44;5.30;65.32
68977;SHT31;56029;52.568;13.588;2023-04-03T13:50:24;5.20;65.10
68977;SHT31;56029;52.568;13.588;2023-04-03T13:52:59;5.36;66.75
68977;SHT31;56029;52.568;13.588;2023-04-03T13:55:29;5.33;66.48
68977;SHT31;56029;52.568;13.588;2023-04-03T14:00:49;4.97;67.38
68977;SHT31;56029;52.568;13.588;2023-04-03T14:05:44;4.90;66.65
68977;SHT31;56029;52.568;13.588;2023-04-03T14:08:11;5.07;66.22
68977;SHT31;56029;52.568;13.588;2023-04-03T14:10:37;5.48;66.47
68977;SHT31;56029;52.568;13.588;2023-04-03T14:13:02;5.54;65.52
68977;SHT31;56029;52.568;13.588;2023-04-03T14:15:30;5.55;66.96
68977;SHT31;56029;52.568;13.588;2023-04-03T14:17:57;5.48;66.74
68977;SHT31;56029;52.568;13.588;2023-04-03T14:20:25;5.27;66.57
68977;SHT31;56029;52.568;13.588;2023-04-03T14:22:52;5.05;67.32
68977;SHT31;56029;52.568;13.588;2023-04-03T14:25:18;4.86;66.91
68977;SHT31;56029;52.568;13.588;2023-04-03T14:27:49;4.71;68.32
68977;SHT31;56029;52.568;13.588;2023-04-03T14:30:22;4.55;68.91
68977;SHT31;56029;52.568;13.588;2023-04-03T14:32:48;4.48;68.48
68977;SHT31;56029;52.568;13.588;2023-04-03T14:35:15;4.51;69.73
68977;SHT31;56029;52.568;13.588;2023-04-03T14:37:41;4.33;68.83
68977;SHT31;56029;52.568;13.588;2023-04-03T14:40:08;4.36;70.40
68977;SHT31;56029;52.568;13.588;2023-04-03T14:42:36;4.40;71.09
68977;SHT31;56029;52.568;13.588;2023-04-03T14:45:05;4.28;70.18
68977;SHT31;56029;52.568;13.588;2023-04-03T14:47:31;4.17;71.22
68977;SHT31;56029;52.568;13.588;2023-04-03T14:50:03;4.13;71.79
68977;SHT31;56029;52.568;13.588;2023-04-03T14:52:32;4.11;71.46
68977;SHT31;56029;52.568;13.588;2023-04-03T14:54:59;4.10;71.91
68977;SHT31;56029;52.568;13.588;2023-04-03T14:57:27;4.10;72.15
68977;SHT31;56029;52.568;13.588;2023-04-03T14:59:53;4.13;72.49
68977;SHT31;56029;52.568;13.588;2023-04-03T15:02:26;4.00;72.92
68977;SHT31;56029;52.568;13.588;2023-04-03T15:04:54;4.10;72.25
68977;SHT31;56029;52.568;13.588;2023-04-03T15:07:20;4.13;72.36
68977;SHT31;56029;52.568;13.588;2023-04-03T15:09:45;4.22;72.36
68977;SHT31;56029;52.568;13.588;2023-04-03T15:12:11;4.24;72.49
68977;SHT31;56029;52.568;13.588;2023-04-03T15:14:37;4.16;71.51
68977;SHT31;56029;52.568;13.588;2023-04-03T15:17:06;4.16;70.81
68977;SHT31;56029;52.568;13.588;2023-04-03T15:19:36;4.18;71.23
68977;SHT31;56029;52.568;13.588;2023-04-03T15:22:02;4.25;71.67
68977;SHT31;56029;52.568;13.588;2023-04-03T15:24:27;4.14;71.55
68977;SHT31;56029;52.568;13.588;2023-04-03T15:26:54;4.11;71.04
68977;SHT31;56029;52.568;13.588;2023-04-03T15:29:19;4.04;71.09
68977;SHT31;56029;52.568;13.588;2023-04-03T15:31:45;4.03;72.17
68977;SHT31;56029;52.568;13.588;2023-04-03T15:34:10;3.96;71.76
68977;SHT31;56029;52.568;13.588;2023-04-03T15:36:36;3.86;71.87
68977;SHT31;56029;52.568;13.588;2023-04-03T15:39:01;3.83;71.86
68977;SHT31;56029;52.568;13.588;2023-04-03T15:41:27;3.80;72.33
68977;SHT31;56029;52.568;13.588;2023-04-03T15:43:53;4.07;71.63
68977;SHT31;56029;52.568;13.588;2023-04-03T15:46:18;4.54;70.76
68977;SHT31;56029;52.568;13.588;2023-04-03T15:48:44;4.85;69.57
68977;SHT31;56029;52.568;13.588;2023-04-03T15:51:10;5.40;67.85
68977;SHT31;56029;52.568;13.588;2023-04-03T15:53:36;6.16;64.52
68977;SHT31;56029;52.568;13.588;2023-04-03T15:56:01;5.84;63.51
68977;SHT31;56029;52.568;13.588;2023-04-03T15:58:27;5.41;64.65
68977;SHT31;56029;52.568;13.588;2023-04-03T16:00:53;5.37;67.10
68977;SHT31;56029;52.568;13.588;2023-04-03T16:03:20;5.16;66.35
68977;SHT31;56029;52.568;13.588;2023-04-03T16:05:46;4.97;68.04
68977;SHT31;56029;52.568;13.588;2023-04-03T16:08:12;4.76;70.00
68977;SHT31;56029;52.568;13.588;2023-04-03T16:10:38;4.65;68.80
68977;SHT31;56029;52.568;13.588;2023-04-03T16:13:04;4.55;70.01
68977;SHT31;56029;52.568;13.588;2023-04-03T16:15:32;4.48;71.07
68977;SHT31;56029;52.568;13.588;2023-04-03T16:17:58;4.40;71.62
68977;SHT31;56029;52.568;13.588;2023-04-03T16:20:25;4.24;71.45
68977;SHT31;56029;52.568;13.588;2023-04-03T16:22:51;4.17;72.32
68977;SHT31;56029;52.568;13.588;2023-04-03T16:25:17;4.08;72.35
68977;SHT31;56029;52.568;13.588;2023-04-03T16:27:42;4.07;71.71
68977;SHT31;56029;52.568;13.588;2023-04-03T16:30:09;4.00;73.40
68977;SHT31;56029;52.568;13.588;2023-04-03T16:32:35;4.01;74.63
68977;SHT31;56029;52.568;13.588;2023-04-03T16:35:02;3.91;75.18
68977;SHT31;56029;52.568;13.588;2023-04-03T16:37:28;3.86;74.66
68977;SHT31;56029;52.568;13.588;2023-04-03T16:39:54;3.90;74.88
68977;SHT31;56029;52.568;13.588;2023-04-03T16:42:19;3.86;74.77
68977;SHT31;56029;52.568;13.588;2023-04-03T16:44:45;3.82;73.75
68977;SHT31;56029;52.568;13.588;2023-04-03T16:47:11;3.83;73.39
68977;SHT31;56029;52.568;13.588;2023-04-03T16:49:38;3.80;73.49